Little River, Kansas
Current Conditions -  °F | °C
As of 4:52 AM on Wednesday 22 Oct 2014 (Local Time) from KHUT Reporting Station
Haze Haze  
Wind Chill: 56°   Ceiling: Unl
Heat Index: 56°   Visibility: 5mi
Dew Point: 54°   Wind: 5mph
Humidity: 93%   Direction: 120°ESE
Pressure: 30.06"   Gusts: NA
Location:  38.4°N, 98.01°W
Report Text: KHUT 220952Z AUTO 12004KT 5SM BR CLR 13/12 A3006 RMK AO2 SLP163 T01330122
Loading
Personal Weather Stations






























Interactive Weather Map
Tropical Storm Tracking
New forecast layout! Learn more

10-Day Weather Forecast

Advertisements
Track Severe Weather on mobile